sensor_id;sensor_type;location;lat;lon;timestamp;pressure;altitude;pressure_sealevel;temperature;humidity
59531;BME280;45349;48.692;8.186;2023-09-18T00:00:58;151429.47;;;21.52;72.51
59531;BME280;45349;48.692;8.186;2023-09-18T00:03:25;151455.81;;;21.63;72.85
59531;BME280;45349;48.692;8.186;2023-09-18T00:06:17;151430.69;;;21.53;73.47
59531;BME280;45349;48.692;8.186;2023-09-18T00:08:43;151421.94;;;21.49;74.27
59531;BME280;45349;48.692;8.186;2023-09-18T00:11:10;151401.91;;;21.41;74.36
59531;BME280;45349;48.692;8.186;2023-09-18T00:13:38;151383.06;;;21.33;75.46
59531;BME280;45349;48.692;8.186;2023-09-18T00:16:05;151368.00;;;21.27;75.66
59531;BME280;45349;48.692;8.186;2023-09-18T00:18:31;151363.00;;;21.25;77.50
59531;BME280;45349;48.692;8.186;2023-09-18T00:20:58;151341.72;;;21.16;78.38
59531;BME280;45349;48.692;8.186;2023-09-18T00:23:25;151307.91;;;21.02;79.67
59531;BME280;45349;48.692;8.186;2023-09-18T00:26:17;151270.28;;;20.87;80.66
59531;BME280;45349;48.692;8.186;2023-09-18T00:28:51;151252.75;;;20.79;81.60
59531;BME280;45349;48.692;8.186;2023-09-18T00:31:19;151220.13;;;20.66;82.47
59531;BME280;45349;48.692;8.186;2023-09-18T00:33:46;151215.09;;;20.64;82.85
59531;BME280;45349;48.692;8.186;2023-09-18T00:36:13;151202.56;;;20.59;84.01
59531;BME280;45349;48.692;8.186;2023-09-18T00:38:40;151210.09;;;20.62;83.88
59531;BME280;45349;48.692;8.186;2023-09-18T00:41:06;151187.53;;;20.53;85.68
59531;BME280;45349;48.692;8.186;2023-09-18T00:43:33;151180.00;;;20.49;86.41
59531;BME280;45349;48.692;8.186;2023-09-18T00:46:01;151190.03;;;20.54;84.69
59531;BME280;45349;48.692;8.186;2023-09-18T00:48:28;151206.34;;;20.60;83.84
59531;BME280;45349;48.692;8.186;2023-09-18T00:50:58;151197.56;;;20.57;85.09
59531;BME280;45349;48.692;8.186;2023-09-18T00:53:25;151195.06;;;20.56;85.50
59531;BME280;45349;48.692;8.186;2023-09-18T00:56:00;151182.53;;;20.50;85.11
59531;BME280;45349;48.692;8.186;2023-09-18T00:58:27;151183.78;;;20.51;85.75
59531;BME280;45349;48.692;8.186;2023-09-18T01:00:58;151181.28;;;20.50;86.19
59531;BME280;45349;48.692;8.186;2023-09-18T01:03:27;151183.78;;;20.51;85.17
59531;BME280;45349;48.692;8.186;2023-09-18T01:06:00;151187.53;;;20.53;84.88
59531;BME280;45349;48.692;8.186;2023-09-18T01:08:26;151191.31;;;20.54;85.43
59531;BME280;45349;48.692;8.186;2023-09-18T01:11:04;151188.81;;;20.53;86.52
59531;BME280;45349;48.692;8.186;2023-09-18T01:13:37;151187.53;;;20.53;86.88
59531;BME280;45349;48.692;8.186;2023-09-18T01:16:08;151180.00;;;20.49;86.50
59531;BME280;45349;48.692;8.186;2023-09-18T01:18:38;151176.28;;;20.48;86.30
59531;BME280;45349;48.692;8.186;2023-09-18T01:21:04;151177.50;;;20.48;86.58
59531;BME280;45349;48.692;8.186;2023-09-18T01:23:32;151164.97;;;20.43;87.76
59531;BME280;45349;48.692;8.186;2023-09-18T01:25:59;151175.00;;;20.47;90.99
59531;BME280;45349;48.692;8.186;2023-09-18T01:28:25;151167.47;;;20.44;90.94
59531;BME280;45349;48.692;8.186;2023-09-18T01:31:16;151156.22;;;20.40;93.12
59531;BME280;45349;48.692;8.186;2023-09-18T01:33:45;151148.72;;;20.37;92.81
59531;BME280;45349;48.692;8.186;2023-09-18T01:36:13;151143.69;;;20.34;92.30
59531;BME280;45349;48.692;8.186;2023-09-18T01:38:42;151352.97;;;21.21;77.23
59531;BME280;45349;48.692;8.186;2023-09-18T01:41:09;151444.53;;;21.59;72.34
59531;BME280;45349;48.692;8.186;2023-09-18T01:43:37;151548.63;;;22.02;68.82
59531;BME280;45349;48.692;8.186;2023-09-18T01:46:03;151623.84;;;22.33;67.48
59531;BME280;45349;48.692;8.186;2023-09-18T01:48:30;151669.03;;;22.51;65.37
59531;BME280;45349;48.692;8.186;2023-09-18T01:50:58;151696.63;;;22.63;64.75
59531;BME280;45349;48.692;8.186;2023-09-18T01:53:25;151744.31;;;22.82;64.29
59531;BME280;45349;48.692;8.186;2023-09-18T01:56:18;151760.59;;;22.89;64.78
59531;BME280;45349;48.692;8.186;2023-09-18T01:58:45;151804.53;;;23.07;63.62
59531;BME280;45349;48.692;8.186;2023-09-18T02:01:11;151809.56;;;23.09;64.95
59531;BME280;45349;48.692;8.186;2023-09-18T02:03:38;151788.19;;;23.00;64.79
59531;BME280;45349;48.692;8.186;2023-09-18T02:06:07;151755.59;;;22.87;66.69
59531;BME280;45349;48.692;8.186;2023-09-18T02:08:33;151745.53;;;22.83;67.29
59531;BME280;45349;48.692;8.186;2023-09-18T02:11:00;151728.03;;;22.76;66.56
59531;BME280;45349;48.692;8.186;2023-09-18T02:13:54;151706.66;;;22.67;66.93
59531;BME280;45349;48.692;8.186;2023-09-18T02:16:21;151719.22;;;22.72;65.82
59531;BME280;45349;48.692;8.186;2023-09-18T02:18:49;151715.47;;;22.70;66.71
59531;BME280;45349;48.692;8.186;2023-09-18T02:21:19;151689.09;;;22.60;69.65
59531;BME280;45349;48.692;8.186;2023-09-18T02:23:48;151664.03;;;22.49;72.93
59531;BME280;45349;48.692;8.186;2023-09-18T02:26:15;151631.34;;;22.36;74.63
59531;BME280;45349;48.692;8.186;2023-09-18T02:28:42;151582.47;;;22.16;74.57
59531;BME280;45349;48.692;8.186;2023-09-18T02:31:10;151559.88;;;22.06;76.86
59531;BME280;45349;48.692;8.186;2023-09-18T02:33:36;151493.44;;;21.79;84.42
59531;BME280;45349;48.692;8.186;2023-09-18T02:36:03;151428.19;;;21.52;86.29
59531;BME280;45349;48.692;8.186;2023-09-18T02:38:30;151389.34;;;21.36;89.76
59531;BME280;45349;48.692;8.186;2023-09-18T02:40:58;151369.28;;;21.28;86.01
59531;BME280;45349;48.692;8.186;2023-09-18T02:43:25;151322.94;;;21.08;86.92
59531;BME280;45349;48.692;8.186;2023-09-18T02:45:58;151295.38;;;20.97;88.84
59531;BME280;45349;48.692;8.186;2023-09-18T02:48:26;151282.81;;;20.92;88.58
59531;BME280;45349;48.692;8.186;2023-09-18T02:50:58;151279.03;;;20.90;87.40
59531;BME280;45349;48.692;8.186;2023-09-18T02:53:25;151301.59;;;21.00;84.12
59531;BME280;45349;48.692;8.186;2023-09-18T02:55:59;151305.38;;;21.01;83.92
59531;BME280;45349;48.692;8.186;2023-09-18T02:58:26;151316.66;;;21.06;82.39
59531;BME280;45349;48.692;8.186;2023-09-18T03:04:06;151359.28;;;21.23;81.61
59531;BME280;45349;48.692;8.186;2023-09-18T03:06:32;151360.50;;;21.24;81.12
59531;BME280;45349;48.692;8.186;2023-09-18T03:08:59;151385.56;;;21.34;80.25
59531;BME280;45349;48.692;8.186;2023-09-18T03:11:26;151389.34;;;21.36;79.92
59531;BME280;45349;48.692;8.186;2023-09-18T03:13:54;151428.19;;;21.52;78.36
59531;BME280;45349;48.692;8.186;2023-09-18T03:16:21;151433.22;;;21.54;80.24
59531;BME280;45349;48.692;8.186;2023-09-18T03:18:48;151408.13;;;21.44;79.40
59531;BME280;45349;48.692;8.186;2023-09-18T03:21:16;151396.88;;;21.39;80.84
59531;BME280;45349;48.692;8.186;2023-09-18T03:23:42;151275.31;;;20.89;90.74
59531;BME280;45349;48.692;8.186;2023-09-18T03:26:09;151158.72;;;20.41;98.12
59531;BME280;45349;48.692;8.186;2023-09-18T03:28:36;151084.84;;;20.10;100.00
59531;BME280;45349;48.692;8.186;2023-09-18T03:31:03;150992.09;;;19.72;100.00
59531;BME280;45349;48.692;8.186;2023-09-18T03:33:31;150988.31;;;19.70;100.00
59531;BME280;45349;48.692;8.186;2023-09-18T03:35:58;150957.03;;;19.57;100.00
59531;BME280;45349;48.692;8.186;2023-09-18T03:38:29;150949.50;;;19.54;100.00
59531;BME280;45349;48.692;8.186;2023-09-18T03:40:59;150942.00;;;19.51;100.00
59531;BME280;45349;48.692;8.186;2023-09-18T03:43:26;150923.22;;;19.43;100.00
59531;BME280;45349;48.692;8.186;2023-09-18T03:46:05;150906.94;;;19.37;100.00
59531;BME280;45349;48.692;8.186;2023-09-18T03:48:39;150899.41;;;19.33;100.00
59531;BME280;45349;48.692;8.186;2023-09-18T03:51:06;150875.63;;;19.24;100.00
59531;BME280;45349;48.692;8.186;2023-09-18T03:53:35;150879.38;;;19.25;100.00
59531;BME280;45349;48.692;8.186;2023-09-18T03:56:02;150856.84;;;19.16;100.00
59531;BME280;45349;48.692;8.186;2023-09-18T03:58:29;150818.03;;;19.00;100.00
59531;BME280;45349;48.692;8.186;2023-09-18T04:00:58;150809.31;;;18.96;100.00
59531;BME280;45349;48.692;8.186;2023-09-18T04:03:24;150805.47;;;18.95;100.00
59531;BME280;45349;48.692;8.186;2023-09-18T04:06:16;150791.72;;;18.89;100.00
59531;BME280;45349;48.692;8.186;2023-09-18T04:08:47;150794.22;;;18.90;100.00
59531;BME280;45349;48.692;8.186;2023-09-18T04:11:13;150759.19;;;18.76;100.00
59531;BME280;45349;48.692;8.186;2023-09-18T04:13:40;150742.88;;;18.69;100.00
59531;BME280;45349;48.692;8.186;2023-09-18T04:16:07;150734.13;;;18.65;100.00
59531;BME280;45349;48.692;8.186;2023-09-18T04:18:33;150721.63;;;18.60;100.00
59531;BME280;45349;48.692;8.186;2023-09-18T04:21:00;150715.34;;;18.57;100.00
59531;BME280;45349;48.692;8.186;2023-09-18T04:23:27;150699.09;;;18.51;100.00
59531;BME280;45349;48.692;8.186;2023-09-18T04:26:00;150714.13;;;18.57;100.00
59531;BME280;45349;48.692;8.186;2023-09-18T04:28:27;150714.13;;;18.57;100.00
59531;BME280;45349;48.692;8.186;2023-09-18T04:30:58;150734.13;;;18.65;100.00
59531;BME280;45349;48.692;8.186;2023-09-18T04:33:26;150736.66;;;18.66;100.00
59531;BME280;45349;48.692;8.186;2023-09-18T04:35:58;150721.63;;;18.60;100.00
59531;BME280;45349;48.692;8.186;2023-09-18T04:38:25;150699.09;;;18.51;100.00
59531;BME280;45349;48.692;8.186;2023-09-18T04:41:00;150695.38;;;18.49;100.00
59531;BME280;45349;48.692;8.186;2023-09-18T04:43:27;150709.09;;;18.55;100.00
59531;BME280;45349;48.692;8.186;2023-09-18T04:46:00;150731.63;;;18.64;100.00
59531;BME280;45349;48.692;8.186;2023-09-18T04:48:29;150740.38;;;18.68;100.00
59531;BME280;45349;48.692;8.186;2023-09-18T04:50:59;150749.16;;;18.71;100.00
59531;BME280;45349;48.692;8.186;2023-09-18T04:53:27;150747.88;;;18.71;100.00
59531;BME280;45349;48.692;8.186;2023-09-18T04:55:59;150767.91;;;18.79;100.00
59531;BME280;45349;48.692;8.186;2023-09-18T04:58:26;150772.94;;;18.81;100.00
59531;BME280;45349;48.692;8.186;2023-09-18T05:00:59;150814.31;;;18.98;100.00
59531;BME280;45349;48.692;8.186;2023-09-18T05:03:28;150818.03;;;19.00;100.00
59531;BME280;45349;48.692;8.186;2023-09-18T05:05:59;150848.09;;;19.12;100.00
59531;BME280;45349;48.692;8.186;2023-09-18T05:08:28;150866.84;;;19.20;99.61
59531;BME280;45349;48.692;8.186;2023-09-18T05:10:59;150894.41;;;19.31;100.00
59531;BME280;45349;48.692;8.186;2023-09-18T05:13:27;150881.88;;;19.26;100.00
59531;BME280;45349;48.692;8.186;2023-09-18T05:15:58;150888.16;;;19.29;99.13
59531;BME280;45349;48.692;8.186;2023-09-18T05:18:26;150896.91;;;19.32;100.00
59531;BME280;45349;48.692;8.186;2023-09-18T05:20:58;150925.72;;;19.44;95.60
59531;BME280;45349;48.692;8.186;2023-09-18T05:23:29;150913.22;;;19.39;98.26
59531;BME280;45349;48.692;8.186;2023-09-18T05:26:00;150924.47;;;19.44;96.28
59531;BME280;45349;48.692;8.186;2023-09-18T05:28:26;150920.72;;;19.42;97.01
59531;BME280;45349;48.692;8.186;2023-09-18T05:30:58;150909.44;;;19.38;99.08
59531;BME280;45349;48.692;8.186;2023-09-18T05:33:25;150926.97;;;19.45;95.36
59531;BME280;45349;48.692;8.186;2023-09-18T05:36:16;150929.47;;;19.46;99.13
59531;BME280;45349;48.692;8.186;2023-09-18T05:38:43;150962.03;;;19.59;91.35
59531;BME280;45349;48.692;8.186;2023-09-18T05:41:11;150968.25;;;19.62;93.93
59531;BME280;45349;48.692;8.186;2023-09-18T05:43:37;150989.59;;;19.71;95.44
59531;BME280;45349;48.692;8.186;2023-09-18T05:46:04;151071.03;;;20.04;88.58
59531;BME280;45349;48.692;8.186;2023-09-18T05:48:31;151077.31;;;20.07;87.13
59531;BME280;45349;48.692;8.186;2023-09-18T05:50:58;151074.81;;;20.06;87.75
59531;BME280;45349;48.692;8.186;2023-09-18T05:53:25;151084.84;;;20.10;86.12
59531;BME280;45349;48.692;8.186;2023-09-18T05:56:17;151084.84;;;20.10;87.23
59531;BME280;45349;48.692;8.186;2023-09-18T05:58:44;151072.31;;;20.05;89.16
59531;BME280;45349;48.692;8.186;2023-09-18T06:01:11;151084.84;;;20.10;89.60
59531;BME280;45349;48.692;8.186;2023-09-18T06:03:37;151097.31;;;20.15;84.43
59531;BME280;45349;48.692;8.186;2023-09-18T06:06:04;151149.94;;;20.37;83.24
59531;BME280;45349;48.692;8.186;2023-09-18T06:08:31;151151.22;;;20.38;83.51
59531;BME280;45349;48.692;8.186;2023-09-18T06:10:58;151173.78;;;20.47;81.95
59531;BME280;45349;48.692;8.186;2023-09-18T06:13:27;151142.41;;;20.34;83.63
59531;BME280;45349;48.692;8.186;2023-09-18T06:15:58;151142.41;;;20.34;82.57
59531;BME280;45349;48.692;8.186;2023-09-18T06:18:25;151138.69;;;20.32;84.78
59531;BME280;45349;48.692;8.186;2023-09-18T06:21:16;151108.63;;;20.20;85.98
59531;BME280;45349;48.692;8.186;2023-09-18T06:23:43;151079.81;;;20.08;91.23
59531;BME280;45349;48.692;8.186;2023-09-18T06:26:09;151034.72;;;19.89;92.55
59531;BME280;45349;48.692;8.186;2023-09-18T06:28:37;151008.34;;;19.79;94.31
59531;BME280;45349;48.692;8.186;2023-09-18T06:31:04;150983.28;;;19.68;95.00
59531;BME280;45349;48.692;8.186;2023-09-18T06:33:31;150977.06;;;19.66;93.88
59531;BME280;45349;48.692;8.186;2023-09-18T06:35:58;150987.06;;;19.70;89.40
59531;BME280;45349;48.692;8.186;2023-09-18T06:38:25;150984.56;;;19.69;91.15
59531;BME280;45349;48.692;8.186;2023-09-18T06:40:58;150992.09;;;19.72;91.84
59531;BME280;45349;48.692;8.186;2023-09-18T06:43:25;150988.31;;;19.70;94.87
59531;BME280;45349;48.692;8.186;2023-09-18T06:46:17;150965.75;;;19.61;93.68
59531;BME280;45349;48.692;8.186;2023-09-18T06:48:44;150979.56;;;19.67;90.68
59531;BME280;45349;48.692;8.186;2023-09-18T06:51:14;150957.03;;;19.57;94.14
59531;BME280;45349;48.692;8.186;2023-09-18T06:53:42;150964.53;;;19.60;93.94
59531;BME280;45349;48.692;8.186;2023-09-18T06:56:09;150970.78;;;19.63;91.34
59531;BME280;45349;48.692;8.186;2023-09-18T06:58:36;150980.78;;;19.67;92.33
59531;BME280;45349;48.692;8.186;2023-09-18T07:01:02;150988.31;;;19.70;90.64
59531;BME280;45349;48.692;8.186;2023-09-18T07:03:33;150967.03;;;19.61;92.10
59531;BME280;45349;48.692;8.186;2023-09-18T07:06:01;150984.56;;;19.69;91.92
59531;BME280;45349;48.692;8.186;2023-09-18T07:08:29;150974.56;;;19.65;93.16
59531;BME280;45349;48.692;8.186;2023-09-18T07:10:58;150987.06;;;19.70;88.87
59531;BME280;45349;48.692;8.186;2023-09-18T07:13:25;150998.31;;;19.74;88.86
59531;BME280;45349;48.692;8.186;2023-09-18T07:16:17;150975.78;;;19.65;91.04
59531;BME280;45349;48.692;8.186;2023-09-18T07:18:45;150972.06;;;19.64;92.12
59531;BME280;45349;48.692;8.186;2023-09-18T07:21:11;150943.28;;;19.52;91.66
59531;BME280;45349;48.692;8.186;2023-09-18T07:23:39;150942.00;;;19.51;90.50
59531;BME280;45349;48.692;8.186;2023-09-18T07:26:06;150948.28;;;19.54;90.14
59531;BME280;45349;48.692;8.186;2023-09-18T07:28:33;150933.25;;;19.47;92.77
59531;BME280;45349;48.692;8.186;2023-09-18T07:31:05;150920.72;;;19.42;92.65
59531;BME280;45349;48.692;8.186;2023-09-18T07:33:31;150924.47;;;19.44;94.12
59531;BME280;45349;48.692;8.186;2023-09-18T07:36:00;150915.72;;;19.40;95.23
59531;BME280;45349;48.692;8.186;2023-09-18T07:38:27;150901.91;;;19.35;95.32
59531;BME280;45349;48.692;8.186;2023-09-18T07:40:58;150903.19;;;19.35;97.08
59531;BME280;45349;48.692;8.186;2023-09-18T07:43:25;150895.69;;;19.32;95.81
59531;BME280;45349;48.692;8.186;2023-09-18T07:46:17;150906.94;;;19.37;94.43
59531;BME280;45349;48.692;8.186;2023-09-18T07:48:43;150916.94;;;19.41;94.69
59531;BME280;45349;48.692;8.186;2023-09-18T07:51:12;150896.91;;;19.32;96.56
59531;BME280;45349;48.692;8.186;2023-09-18T07:53:39;150895.69;;;19.32;97.57
59531;BME280;45349;48.692;8.186;2023-09-18T07:56:06;150894.41;;;19.31;98.40
59531;BME280;45349;48.692;8.186;2023-09-18T07:58:33;150905.69;;;19.36;97.05
59531;BME280;45349;48.692;8.186;2023-09-18T08:01:03;150916.94;;;19.41;95.96
59531;BME280;45349;48.692;8.186;2023-09-18T08:03:31;150934.47;;;19.48;97.49
59531;BME280;45349;48.692;8.186;2023-09-18T08:05:58;150948.28;;;19.54;96.68
59531;BME280;45349;48.692;8.186;2023-09-18T08:08:26;150926.97;;;19.45;98.04
59531;BME280;45349;48.692;8.186;2023-09-18T08:11:00;150942.00;;;19.51;97.05
59531;BME280;45349;48.692;8.186;2023-09-18T08:13:27;150920.72;;;19.42;100.00
59531;BME280;45349;48.692;8.186;2023-09-18T08:15:58;150916.94;;;19.41;100.00
59531;BME280;45349;48.692;8.186;2023-09-18T08:18:25;150957.03;;;19.57;93.14
59531;BME280;45349;48.692;8.186;2023-09-18T08:20:58;150959.53;;;19.58;92.33
59531;BME280;45349;48.692;8.186;2023-09-18T08:23:27;150983.28;;;19.68;92.28
59531;BME280;45349;48.692;8.186;2023-09-18T08:25:58;151014.63;;;19.81;89.62
59531;BME280;45349;48.692;8.186;2023-09-18T08:28:25;151029.66;;;19.87;89.50
59531;BME280;45349;48.692;8.186;2023-09-18T08:31:16;151081.06;;;20.09;88.40
59531;BME280;45349;48.692;8.186;2023-09-18T08:33:43;151079.81;;;20.08;87.95
59531;BME280;45349;48.692;8.186;2023-09-18T08:36:10;151138.69;;;20.32;85.85
59531;BME280;45349;48.692;8.186;2023-09-18T08:38:38;151188.81;;;20.53;84.34
59531;BME280;45349;48.692;8.186;2023-09-18T08:41:05;151202.56;;;20.59;84.83
59531;BME280;45349;48.692;8.186;2023-09-18T08:43:34;151171.25;;;20.46;82.35
59531;BME280;45349;48.692;8.186;2023-09-18T08:46:02;151197.56;;;20.57;82.42
59531;BME280;45349;48.692;8.186;2023-09-18T08:48:30;151159.97;;;20.41;83.93
59531;BME280;45349;48.692;8.186;2023-09-18T08:51:01;151182.53;;;20.50;82.42
59531;BME280;45349;48.692;8.186;2023-09-18T08:53:28;151144.94;;;20.35;81.24
59531;BME280;45349;48.692;8.186;2023-09-18T08:56:01;151148.72;;;20.37;80.69
59531;BME280;45349;48.692;8.186;2023-09-18T08:58:28;151131.16;;;20.29;81.82
59531;BME280;45349;48.692;8.186;2023-09-18T09:00:59;151143.69;;;20.34;81.47
59531;BME280;45349;48.692;8.186;2023-09-18T09:03:28;151137.41;;;20.32;80.63
59531;BME280;45349;48.692;8.186;2023-09-18T09:05:58;151143.69;;;20.34;81.61
59531;BME280;45349;48.692;8.186;2023-09-18T09:08:27;151149.94;;;20.37;79.83
59531;BME280;45349;48.692;8.186;2023-09-18T09:10:59;151151.22;;;20.38;77.00
59531;BME280;45349;48.692;8.186;2023-09-18T09:13:26;151171.25;;;20.46;75.22
59531;BME280;45349;48.692;8.186;2023-09-18T09:15:59;151185.03;;;20.52;76.33
59531;BME280;45349;48.692;8.186;2023-09-18T09:18:26;151180.00;;;20.49;79.20
59531;BME280;45349;48.692;8.186;2023-09-18T09:21:01;151183.78;;;20.51;79.76
59531;BME280;45349;48.692;8.186;2023-09-18T09:23:45;151197.56;;;20.57;79.43
59531;BME280;45349;48.692;8.186;2023-09-18T09:26:16;151215.09;;;20.64;80.70
59531;BME280;45349;48.692;8.186;2023-09-18T09:28:44;151221.38;;;20.67;80.52
59531;BME280;45349;48.692;8.186;2023-09-18T09:31:11;151222.63;;;20.67;78.71
59531;BME280;45349;48.692;8.186;2023-09-18T09:33:51;151245.19;;;20.76;77.63
59531;BME280;45349;48.692;8.186;2023-09-18T09:36:18;151257.75;;;20.82;78.07
59531;BME280;45349;48.692;8.186;2023-09-18T09:38:45;151267.78;;;20.86;76.94
59531;BME280;45349;48.692;8.186;2023-09-18T09:41:13;151253.97;;;20.80;76.54
59531;BME280;45349;48.692;8.186;2023-09-18T09:43:43;151274.03;;;20.88;75.73
59531;BME280;45349;48.692;8.186;2023-09-18T09:46:15;151269.03;;;20.86;75.84
59531;BME280;45349;48.692;8.186;2023-09-18T09:48:57;151295.38;;;20.97;77.43
59531;BME280;45349;48.692;8.186;2023-09-18T09:51:24;151271.53;;;20.87;77.78
59531;BME280;45349;48.692;8.186;2023-09-18T09:53:51;151307.91;;;21.02;75.39
59531;BME280;45349;48.692;8.186;2023-09-18T09:56:18;151336.69;;;21.14;72.88
59531;BME280;45349;48.692;8.186;2023-09-18T09:59:01;151299.09;;;20.99;76.06
59531;BME280;45349;48.692;8.186;2023-09-18T10:01:30;151304.09;;;21.01;74.84
59531;BME280;45349;48.692;8.186;2023-09-18T10:03:58;151285.34;;;20.93;74.78
59531;BME280;45349;48.692;8.186;2023-09-18T10:06:27;151341.72;;;21.16;73.45
59531;BME280;45349;48.692;8.186;2023-09-18T10:08:55;151389.34;;;21.36;72.80
59531;BME280;45349;48.692;8.186;2023-09-18T10:11:23;151341.72;;;21.16;72.09
59531;BME280;45349;48.692;8.186;2023-09-18T10:13:55;151364.28;;;21.26;71.99
59531;BME280;45349;48.692;8.186;2023-09-18T10:16:26;151415.66;;;21.47;72.03
59531;BME280;45349;48.692;8.186;2023-09-18T10:19:06;151378.03;;;21.31;71.74
59531;BME280;45349;48.692;8.186;2023-09-18T10:21:41;151385.56;;;21.34;71.44
59531;BME280;45349;48.692;8.186;2023-09-18T10:24:15;151458.34;;;21.64;71.69
59531;BME280;45349;48.692;8.186;2023-09-18T10:26:48;151450.75;;;21.61;72.73
59531;BME280;45349;48.692;8.186;2023-09-18T10:29:17;151459.63;;;21.65;70.04
59531;BME280;45349;48.692;8.186;2023-09-18T10:31:48;151514.75;;;21.88;70.77
59531;BME280;45349;48.692;8.186;2023-09-18T10:34:17;151517.25;;;21.89;70.91
59531;BME280;45349;48.692;8.186;2023-09-18T10:36:46;151536.09;;;21.96;67.92
59531;BME280;45349;48.692;8.186;2023-09-18T10:39:14;151526.06;;;21.92;69.29
59531;BME280;45349;48.692;8.186;2023-09-18T10:41:47;151591.28;;;22.19;67.43
59531;BME280;45349;48.692;8.186;2023-09-18T10:44:14;151596.28;;;22.21;68.75
59531;BME280;45349;48.692;8.186;2023-09-18T10:46:42;151592.50;;;22.20;68.03
59531;BME280;45349;48.692;8.186;2023-09-18T10:49:10;151637.66;;;22.38;68.80
59531;BME280;45349;48.692;8.186;2023-09-18T10:51:37;151726.75;;;22.75;66.43
59531;BME280;45349;48.692;8.186;2023-09-18T10:54:08;151664.03;;;22.49;66.02
59531;BME280;45349;48.692;8.186;2023-09-18T10:56:34;151674.06;;;22.53;67.30
59531;BME280;45349;48.692;8.186;2023-09-18T10:59:02;151760.59;;;22.89;65.52
59531;BME280;45349;48.692;8.186;2023-09-18T11:01:30;151784.47;;;22.99;64.25
59531;BME280;45349;48.692;8.186;2023-09-18T11:03:58;151684.09;;;22.58;63.07
59531;BME280;45349;48.692;8.186;2023-09-18T11:06:28;151645.19;;;22.41;62.53
59531;BME280;45349;48.692;8.186;2023-09-18T11:08:59;151780.69;;;22.97;62.38
59531;BME280;45349;48.692;8.186;2023-09-18T11:11:30;151847.25;;;23.25;59.38
59531;BME280;45349;48.692;8.186;2023-09-18T11:14:02;151756.84;;;22.88;60.21
59531;BME280;45349;48.692;8.186;2023-09-18T11:16:35;151867.28;;;23.33;57.49
59531;BME280;45349;48.692;8.186;2023-09-18T11:19:12;151871.06;;;23.35;57.80
59531;BME280;45349;48.692;8.186;2023-09-18T11:21:45;151958.94;;;23.71;58.01
59531;BME280;45349;48.692;8.186;2023-09-18T11:24:17;151899.91;;;23.47;59.76
59531;BME280;45349;48.692;8.186;2023-09-18T11:26:46;151982.75;;;23.81;59.24
59531;BME280;45349;48.692;8.186;2023-09-18T11:29:22;151749.34;;;22.84;59.77
59531;BME280;45349;48.692;8.186;2023-09-18T11:31:51;151681.59;;;22.56;59.51
59531;BME280;45349;48.692;8.186;2023-09-18T11:34:23;151635.16;;;22.37;60.82
59531;BME280;45349;48.692;8.186;2023-09-18T11:36:55;151755.59;;;22.87;60.69
59531;BME280;45349;48.692;8.186;2023-09-18T11:39:34;151848.50;;;23.25;59.46
59531;BME280;45349;48.692;8.186;2023-09-18T11:42:09;151876.09;;;23.37;59.61
59531;BME280;45349;48.692;8.186;2023-09-18T11:44:38;151986.56;;;23.82;58.38
59531;BME280;45349;48.692;8.186;2023-09-18T11:47:12;152054.34;;;24.10;59.17
59531;BME280;45349;48.692;8.186;2023-09-18T11:49:46;152026.72;;;23.99;58.42
59531;BME280;45349;48.692;8.186;2023-09-18T11:52:16;152005.34;;;23.90;58.99
59531;BME280;45349;48.692;8.186;2023-09-18T11:54:43;151967.69;;;23.74;59.40
59531;BME280;45349;48.692;8.186;2023-09-18T11:57:12;152045.56;;;24.07;59.32
59531;BME280;45349;48.692;8.186;2023-09-18T11:59:40;152004.06;;;23.89;59.99
59531;BME280;45349;48.692;8.186;2023-09-18T12:02:08;151974.00;;;23.77;60.15
59531;BME280;45349;48.692;8.186;2023-09-18T12:04:35;151979.03;;;23.79;60.30
59531;BME280;45349;48.692;8.186;2023-09-18T12:07:04;151956.44;;;23.70;60.65
59531;BME280;45349;48.692;8.186;2023-09-18T12:09:33;151966.47;;;23.74;60.78
59531;BME280;45349;48.692;8.186;2023-09-18T12:11:59;152108.34;;;24.32;59.35
59531;BME280;45349;48.692;8.186;2023-09-18T12:14:31;152102.06;;;24.30;59.49
59531;BME280;45349;48.692;8.186;2023-09-18T12:16:59;152078.22;;;24.20;60.12
59531;BME280;45349;48.692;8.186;2023-09-18T12:19:26;152113.38;;;24.35;57.29
59531;BME280;45349;48.692;8.186;2023-09-18T12:21:52;152118.41;;;24.37;59.25
59531;BME280;45349;48.692;8.186;2023-09-18T12:24:21;152043.06;;;24.06;60.26
59531;BME280;45349;48.692;8.186;2023-09-18T12:26:49;152075.72;;;24.19;60.14
59531;BME280;45349;48.692;8.186;2023-09-18T12:29:17;152061.88;;;24.13;59.46
59531;BME280;45349;48.692;8.186;2023-09-18T12:31:43;152045.56;;;24.07;61.33
59531;BME280;45349;48.692;8.186;2023-09-18T12:34:14;152000.34;;;23.88;60.05
59531;BME280;45349;48.692;8.186;2023-09-18T12:36:42;151994.03;;;23.85;61.52
59531;BME280;45349;48.692;8.186;2023-09-18T12:39:09;151974.00;;;23.77;60.68
59531;BME280;45349;48.692;8.186;2023-09-18T12:41:37;152142.22;;;24.46;58.72
59531;BME280;45349;48.692;8.186;2023-09-18T12:44:06;152114.59;;;24.35;59.71
59531;BME280;45349;48.692;8.186;2023-09-18T12:46:34;152158.53;;;24.53;59.05
59531;BME280;45349;48.692;8.186;2023-09-18T12:49:15;152177.41;;;24.61;59.97
59531;BME280;45349;48.692;8.186;2023-09-18T12:51:41;152085.75;;;24.23;60.60
59531;BME280;45349;48.692;8.186;2023-09-18T12:54:09;151971.50;;;23.76;61.81
59531;BME280;45349;48.692;8.186;2023-09-18T12:56:41;151857.28;;;23.29;63.25
59531;BME280;45349;48.692;8.186;2023-09-18T12:59:10;151898.69;;;23.46;64.32
59531;BME280;45349;48.692;8.186;2023-09-18T13:01:40;151975.22;;;23.78;63.09
59531;BME280;45349;48.692;8.186;2023-09-18T13:04:11;152071.91;;;24.17;60.31